createdAt,value
2022-10-24T00:01:23.857Z,0.90
2022-10-24T00:03:51.542Z,0.95
2022-10-24T00:06:19.327Z,0.90
2022-10-24T00:08:46.998Z,0.80
2022-10-24T00:11:18.701Z,0.90
2022-10-24T00:13:46.335Z,0.50
2022-10-24T00:16:14.001Z,0.50
2022-10-24T00:18:41.666Z,1.35
2022-10-24T00:21:09.481Z,0.68
2022-10-24T00:23:37.264Z,0.60
2022-10-24T00:26:06.663Z,0.50
2022-10-24T00:28:34.735Z,0.60
2022-10-24T00:31:02.385Z,1.10
2022-10-24T00:33:30.101Z,0.57
2022-10-24T00:35:57.703Z,1.05
2022-10-24T00:38:25.378Z,0.55
2022-10-24T00:40:53.028Z,1.27
2022-10-24T00:43:21.893Z,0.88
2022-10-24T00:45:50.832Z,0.70
2022-10-24T00:48:37.738Z,0.50
2022-10-24T00:51:10.425Z,0.93
2022-10-24T00:53:39.364Z,0.93
2022-10-24T00:56:07.136Z,1.20
2022-10-24T00:58:34.943Z,0.47
2022-10-24T01:01:02.770Z,0.75
2022-10-24T01:03:30.469Z,0.70
2022-10-24T01:06:01.024Z,0.80
2022-10-24T01:08:31.562Z,0.40
2022-10-24T01:11:30.101Z,0.70
2022-10-24T01:13:59.324Z,0.53
2022-10-24T01:16:50.388Z,0.55
2022-10-24T01:19:36.755Z,0.70
2022-10-24T01:22:05.935Z,0.50
2022-10-24T01:24:43.483Z,0.75
2022-10-24T01:27:31.380Z,0.65
2022-10-24T01:30:19.196Z,0.80
2022-10-24T01:33:03.333Z,0.70
2022-10-24T01:35:37.237Z,0.90
2022-10-24T01:38:10.013Z,0.82
2022-10-24T01:40:40.458Z,1.10
2022-10-24T01:43:11.078Z,0.60
2022-10-24T01:45:39.453Z,0.47
2022-10-24T01:48:08.228Z,0.50
2022-10-24T01:50:36.410Z,0.63
2022-10-24T01:53:04.156Z,0.90
2022-10-24T01:55:32.282Z,0.70
2022-10-24T01:57:59.981Z,0.50
2022-10-24T02:00:27.814Z,0.60
2022-10-24T02:02:56.730Z,0.70
2022-10-24T02:05:32.695Z,0.50
2022-10-24T02:08:02.339Z,0.63
2022-10-24T02:10:30.874Z,0.60
2022-10-24T02:13:00.550Z,0.73
2022-10-24T02:15:29.101Z,0.68
2022-10-24T02:17:56.812Z,1.00
2022-10-24T02:20:29.189Z,0.90
2022-10-24T02:23:15.614Z,0.83
2022-10-24T02:28:12.651Z,0.60
2022-10-24T02:30:44.285Z,1.17
2022-10-24T02:33:11.965Z,0.95
2022-10-24T02:35:39.955Z,0.82
2022-10-24T02:38:09.915Z,0.80
2022-10-24T02:40:37.538Z,0.80
2022-10-24T02:43:05.185Z,1.05
2022-10-24T02:45:32.831Z,0.85
2022-10-24T02:48:02.630Z,1.17
2022-10-24T02:50:30.308Z,1.02
2022-10-24T02:52:57.903Z,1.15
2022-10-24T02:55:25.836Z,0.90
2022-10-24T02:57:53.426Z,1.27
2022-10-24T03:00:21.221Z,1.00
2022-10-24T03:02:48.942Z,0.90
2022-10-24T03:05:16.605Z,0.80
2022-10-24T03:07:44.194Z,1.02
2022-10-24T03:10:11.893Z,1.45
2022-10-24T03:12:39.516Z,1.30
2022-10-24T03:15:07.393Z,1.23
2022-10-24T03:17:35.062Z,0.75
2022-10-24T03:20:02.682Z,0.87
2022-10-24T03:22:30.985Z,0.90
2022-10-24T03:25:02.090Z,0.98
2022-10-24T03:27:30.203Z,0.90
2022-10-24T03:29:57.849Z,1.33
2022-10-24T03:34:54.049Z,0.50
2022-10-24T03:37:21.752Z,0.83
2022-10-24T03:39:49.385Z,1.25
2022-10-24T03:42:17.076Z,0.80
2022-10-24T03:44:44.737Z,0.80
2022-10-24T03:47:12.370Z,1.20
2022-10-24T03:49:40.074Z,0.70
2022-10-24T03:52:07.973Z,0.70
2022-10-24T03:54:35.792Z,0.80
2022-10-24T03:57:03.487Z,0.85
2022-10-24T03:59:31.270Z,0.80
2022-10-24T04:02:01.303Z,0.90
2022-10-24T04:04:29.057Z,0.93
2022-10-24T04:06:56.756Z,0.80
2022-10-24T04:09:24.471Z,0.73
2022-10-24T04:11:53.590Z,0.60
2022-10-24T04:14:21.604Z,0.93
2022-10-24T04:16:49.397Z,0.93
2022-10-24T04:19:19.937Z,0.55
2022-10-24T04:21:48.218Z,1.05
2022-10-24T04:24:15.889Z,0.40
2022-10-24T04:26:43.670Z,0.93
2022-10-24T04:29:11.493Z,0.60
2022-10-24T04:31:39.203Z,1.40
2022-10-24T04:34:06.849Z,1.40
2022-10-24T04:36:34.700Z,0.60
2022-10-24T04:39:02.324Z,1.02
2022-10-24T04:41:30.015Z,1.00
2022-10-24T04:43:57.686Z,1.27
2022-10-24T04:46:25.273Z,0.95
2022-10-24T04:48:53.700Z,1.00
2022-10-24T04:51:22.483Z,0.60
2022-10-24T04:53:50.774Z,0.88
2022-10-24T04:56:19.587Z,1.02
2022-10-24T04:58:47.238Z,0.70
2022-10-24T05:01:14.980Z,1.10
2022-10-24T05:03:42.711Z,0.85
2022-10-24T05:06:10.433Z,0.60
2022-10-24T05:08:38.064Z,0.75
2022-10-24T05:11:05.787Z,1.02
2022-10-24T05:13:36.571Z,0.60
2022-10-24T05:16:05.221Z,0.70
2022-10-24T05:18:33.142Z,0.82
2022-10-24T05:21:00.963Z,0.93
2022-10-24T05:23:28.785Z,0.70
2022-10-24T05:25:56.500Z,0.65
2022-10-24T05:28:24.231Z,0.70
2022-10-24T05:30:51.872Z,0.82
2022-10-24T05:33:19.569Z,0.70
2022-10-24T05:35:47.244Z,1.00
2022-10-24T05:38:14.880Z,0.80
2022-10-24T05:40:42.592Z,0.67
2022-10-24T05:43:10.236Z,0.77
2022-10-24T05:45:37.953Z,0.80
2022-10-24T05:48:05.723Z,0.80
2022-10-24T05:50:33.452Z,1.02
2022-10-24T05:53:01.070Z,0.80
2022-10-24T05:55:29.013Z,0.90
2022-10-24T05:57:56.636Z,0.93
2022-10-24T06:00:24.319Z,1.00
2022-10-24T06:02:51.926Z,1.13
2022-10-24T06:05:19.818Z,1.00
2022-10-24T06:07:47.751Z,0.60
2022-10-24T06:10:15.775Z,0.70
2022-10-24T06:12:43.785Z,0.80
2022-10-24T06:15:13.078Z,0.50
2022-10-24T06:17:40.717Z,0.82
2022-10-24T06:20:08.741Z,0.50
2022-10-24T06:22:36.472Z,0.80
2022-10-24T06:25:04.192Z,0.70
2022-10-24T06:27:31.878Z,0.60
2022-10-24T06:29:59.487Z,0.90
2022-10-24T06:32:27.212Z,0.60
2022-10-24T06:34:54.937Z,0.60
2022-10-24T06:37:22.710Z,0.80
2022-10-24T06:39:50.422Z,0.43
2022-10-24T06:42:18.041Z,0.65
2022-10-24T06:44:45.764Z,0.60
2022-10-24T06:47:13.354Z,0.70
2022-10-24T06:49:41.037Z,0.65
2022-10-24T06:52:08.639Z,0.70
2022-10-24T06:54:36.930Z,0.67
2022-10-24T06:57:04.509Z,0.45
2022-10-24T06:59:32.223Z,0.80
2022-10-24T07:02:03.254Z,0.50
2022-10-24T07:04:33.601Z,0.60
2022-10-24T07:07:01.269Z,0.55
2022-10-24T07:09:29.129Z,0.75
2022-10-24T07:11:56.882Z,0.63
2022-10-24T07:14:25.977Z,0.40
2022-10-24T07:16:53.686Z,0.50
2022-10-24T07:19:23.594Z,0.60
2022-10-24T07:21:51.264Z,0.40
2022-10-24T07:24:20.180Z,0.50
2022-10-24T07:26:48.965Z,0.30
2022-10-24T07:29:16.625Z,0.50
2022-10-24T07:31:44.234Z,0.85
2022-10-24T07:34:11.913Z,0.50
2022-10-24T07:36:41.484Z,0.70
2022-10-24T07:39:10.598Z,0.80
2022-10-24T07:41:39.346Z,0.65
2022-10-24T07:44:07.146Z,0.57
2022-10-24T07:46:34.797Z,0.75
2022-10-24T07:49:02.445Z,0.80
2022-10-24T07:51:31.671Z,0.40
2022-10-24T07:53:59.486Z,0.40
2022-10-24T07:56:29.722Z,0.55
2022-10-24T07:58:58.050Z,0.50
2022-10-24T08:01:26.200Z,0.45
2022-10-24T08:03:53.869Z,0.60
2022-10-24T08:06:22.522Z,0.40
2022-10-24T08:08:50.131Z,0.70
2022-10-24T08:11:18.744Z,0.80
2022-10-24T08:13:46.518Z,0.60
2022-10-24T08:16:14.578Z,0.57
2022-10-24T08:18:42.310Z,0.50
2022-10-24T08:21:10.900Z,1.02
2022-10-24T08:23:39.407Z,0.55
2022-10-24T08:26:07.469Z,0.55
2022-10-24T08:28:35.241Z,0.60
2022-10-24T08:31:03.615Z,0.55
2022-10-24T08:33:31.354Z,1.00
2022-10-24T08:35:59.968Z,0.45
2022-10-24T08:38:27.924Z,0.40
2022-10-24T08:40:55.848Z,0.30
2022-10-24T08:43:23.463Z,0.70
2022-10-24T08:46:24.920Z,0.60
2022-10-24T08:48:54.860Z,0.50
2022-10-24T08:51:22.515Z,0.65
2022-10-24T08:53:51.466Z,0.52
2022-10-24T08:56:19.163Z,0.82
2022-10-24T08:58:46.783Z,0.90
2022-10-24T09:01:16.866Z,0.70
2022-10-24T09:04:00.805Z,0.40
2022-10-24T09:06:29.248Z,0.60
2022-10-24T09:08:58.367Z,0.50
2022-10-24T09:11:26.059Z,0.40
2022-10-24T09:13:53.656Z,0.50
2022-10-24T09:16:21.904Z,0.60
2022-10-24T09:18:49.714Z,1.05
2022-10-24T09:21:17.423Z,0.40
2022-10-24T09:23:48.094Z,0.47
2022-10-24T09:26:37.651Z,0.60
2022-10-24T09:29:05.327Z,0.52
2022-10-24T09:31:32.916Z,0.93
2022-10-24T09:34:00.608Z,0.60
2022-10-24T09:36:29.647Z,0.75
2022-10-24T09:38:57.306Z,0.70
2022-10-24T09:41:25.664Z,0.70
2022-10-24T09:43:55.200Z,0.63
2022-10-24T09:46:23.726Z,0.88
2022-10-24T09:49:04.373Z,0.60
2022-10-24T09:51:50.470Z,0.70
2022-10-24T09:54:21.183Z,0.63
2022-10-24T09:56:54.218Z,0.50
2022-10-24T09:59:38.545Z,0.90
2022-10-24T10:02:13.566Z,0.55
2022-10-24T10:04:41.682Z,0.82
2022-10-24T10:07:10.043Z,0.50
2022-10-24T10:09:42.401Z,1.02
2022-10-24T10:12:25.654Z,0.45
2022-10-24T10:14:53.489Z,0.93
2022-10-24T10:17:22.955Z,0.40
2022-10-24T10:19:51.926Z,0.93
2022-10-24T10:22:23.939Z,0.83
2022-10-24T10:24:51.652Z,0.45
2022-10-24T10:27:26.256Z,0.85
2022-10-24T10:30:12.426Z,0.45
2022-10-24T10:32:42.912Z,0.57
2022-10-24T10:35:17.464Z,0.50
2022-10-24T10:37:47.445Z,1.10
2022-10-24T10:40:15.579Z,0.70
2022-10-24T10:43:01.723Z,0.50
2022-10-24T10:45:34.835Z,0.80
2022-10-24T10:48:21.258Z,0.63
2022-10-24T10:50:50.518Z,0.80
2022-10-24T10:53:24.202Z,0.63
2022-10-24T10:56:01.771Z,0.75
2022-10-24T11:01:18.039Z,0.60
2022-10-24T11:04:04.488Z,1.13
2022-10-24T11:06:35.209Z,0.63
2022-10-24T11:09:12.804Z,0.50
2022-10-24T11:11:44.099Z,0.60
2022-10-24T11:14:16.070Z,0.80
2022-10-24T11:16:43.827Z,1.08
2022-10-24T11:19:31.755Z,1.15
2022-10-24T11:21:59.708Z,0.88
2022-10-24T11:24:27.474Z,0.90
2022-10-24T11:27:04.413Z,1.00
2022-10-24T11:29:37.456Z,0.70
2022-10-24T11:32:06.522Z,0.60
2022-10-24T11:34:52.863Z,0.70
2022-10-24T11:37:39.442Z,1.40
2022-10-24T11:40:13.851Z,0.73
2022-10-24T11:42:41.829Z,0.75
2022-10-24T11:45:13.470Z,0.80
2022-10-24T11:47:59.121Z,0.70
2022-10-24T11:50:29.429Z,0.68
2022-10-24T11:53:01.154Z,0.98
2022-10-24T11:55:31.646Z,0.60
2022-10-24T11:57:59.632Z,0.50
2022-10-24T12:00:30.799Z,0.98
2022-10-24T12:03:02.889Z,0.77
2022-10-24T12:05:34.972Z,1.20
2022-10-24T12:08:02.666Z,0.90
2022-10-24T12:10:34.806Z,0.70
2022-10-24T12:13:05.519Z,0.60
2022-10-24T12:15:43.685Z,0.90
2022-10-24T12:18:14.225Z,0.80
2022-10-24T12:20:41.844Z,0.85
2022-10-24T12:23:17.162Z,0.80
2022-10-24T12:25:47.369Z,1.35
2022-10-24T12:28:22.334Z,1.23
2022-10-24T12:31:08.879Z,0.80
2022-10-24T12:33:36.574Z,0.98
2022-10-24T12:36:04.242Z,0.70
2022-10-24T12:38:31.887Z,0.93
2022-10-24T12:41:05.933Z,0.80
2022-10-24T12:43:34.649Z,1.42
2022-10-24T12:46:09.399Z,1.15
2022-10-24T12:48:42.266Z,0.90
2022-10-24T12:51:45.313Z,1.02
2022-10-24T12:54:13.053Z,1.00
2022-10-24T12:56:52.699Z,0.90
2022-10-24T12:59:52.645Z,1.00
2022-10-24T13:02:20.324Z,0.80
2022-10-24T13:05:06.683Z,0.88
2022-10-24T13:07:55.211Z,1.10
2022-10-24T13:10:38.365Z,2.30
2022-10-24T13:13:24.530Z,2.25
2022-10-24T13:16:09.059Z,2.00
2022-10-24T13:18:55.179Z,1.67
2022-10-24T13:21:33.324Z,1.67
2022-10-24T13:24:36.328Z,1.47
2022-10-24T13:27:11.868Z,1.08
2022-10-24T13:29:41.439Z,0.85
2022-10-24T13:32:09.235Z,0.70
2022-10-24T13:34:42.906Z,0.75
2022-10-24T13:37:10.625Z,0.70
2022-10-24T13:39:40.449Z,1.00
2022-10-24T13:42:20.353Z,0.50
2022-10-24T13:44:48.619Z,0.82
2022-10-24T13:47:24.139Z,1.00
2022-10-24T13:49:53.086Z,1.00
2022-10-24T13:52:22.241Z,0.88
2022-10-24T13:54:54.301Z,1.23
2022-10-24T13:57:31.231Z,0.85
2022-10-24T14:00:00.489Z,1.17
2022-10-24T14:02:32.215Z,0.90
2022-10-24T14:05:00.817Z,0.90
2022-10-24T14:07:29.522Z,1.00
2022-10-24T14:10:08.596Z,0.85
2022-10-24T14:12:36.554Z,1.00
2022-10-24T14:15:06.297Z,1.10
2022-10-24T14:17:34.669Z,1.02
2022-10-24T14:20:22.681Z,1.00
2022-10-24T14:22:50.788Z,1.03
2022-10-24T14:25:29.047Z,0.85
2022-10-24T14:27:57.336Z,0.80
2022-10-24T14:30:26.441Z,0.80
2022-10-24T14:33:14.351Z,0.93
2022-10-24T14:35:42.339Z,1.10
2022-10-24T14:38:11.395Z,1.05
2022-10-24T14:40:39.137Z,0.77
2022-10-24T14:43:06.783Z,1.00
2022-10-24T14:45:34.506Z,0.85
2022-10-24T14:48:03.516Z,1.00
2022-10-24T14:50:49.035Z,0.70
2022-10-24T14:53:34.690Z,0.88
2022-10-24T14:56:03.464Z,0.80
2022-10-24T14:58:31.944Z,0.60
2022-10-24T15:00:59.833Z,0.90
2022-10-24T15:03:27.943Z,0.70
2022-10-24T15:05:59.350Z,1.37
2022-10-24T15:08:28.961Z,0.75
2022-10-24T15:11:07.129Z,0.80
2022-10-24T15:13:34.933Z,0.57
2022-10-24T15:16:02.687Z,0.63
2022-10-24T15:18:34.027Z,1.23
2022-10-24T15:21:08.652Z,0.60
2022-10-24T15:23:37.233Z,0.90
2022-10-24T15:26:11.986Z,0.80
2022-10-24T15:28:39.696Z,0.85
2022-10-24T15:31:10.410Z,0.87
2022-10-24T15:36:18.751Z,0.88
2022-10-24T15:38:46.746Z,0.52
2022-10-24T15:41:14.501Z,1.10
2022-10-24T15:43:43.309Z,1.00
2022-10-24T15:46:10.964Z,0.73
2022-10-24T15:48:41.871Z,0.70
2022-10-24T15:51:09.582Z,1.05
2022-10-24T15:53:37.333Z,0.60
2022-10-24T15:56:05.100Z,0.87
2022-10-24T15:58:32.827Z,1.00
2022-10-24T16:01:00.614Z,0.57
2022-10-24T16:03:29.334Z,1.00
2022-10-24T16:05:57.162Z,0.65
2022-10-24T16:08:25.529Z,0.73
2022-10-24T16:10:53.444Z,0.73
2022-10-24T16:13:21.679Z,1.30
2022-10-24T16:15:49.413Z,0.80
2022-10-24T16:18:17.282Z,0.60
2022-10-24T16:20:44.949Z,1.00
2022-10-24T16:23:13.848Z,0.85
2022-10-24T16:25:44.136Z,0.80
2022-10-24T16:28:11.987Z,1.13
2022-10-24T16:30:40.513Z,0.68
2022-10-24T16:33:09.516Z,0.90
2022-10-24T16:35:37.814Z,1.00
2022-10-24T16:38:05.760Z,0.80
2022-10-24T16:40:33.863Z,1.30
2022-10-24T16:43:03.065Z,0.90
2022-10-24T16:45:30.921Z,1.00
2022-10-24T16:47:58.619Z,1.10
2022-10-24T16:50:27.419Z,0.77
2022-10-24T16:52:56.024Z,1.47
2022-10-24T16:55:24.819Z,1.17
2022-10-24T16:57:52.568Z,1.20
2022-10-24T17:00:20.817Z,1.10
2022-10-24T17:02:51.077Z,1.17
2022-10-24T17:05:19.570Z,1.00
2022-10-24T17:07:47.580Z,1.20
2022-10-24T17:10:16.721Z,1.00
2022-10-24T17:12:49.371Z,1.05
2022-10-24T17:15:20.858Z,1.00
2022-10-24T17:17:49.922Z,1.45
2022-10-24T17:20:18.509Z,1.10
2022-10-24T17:22:49.418Z,0.95
2022-10-24T17:25:21.726Z,1.00
2022-10-24T17:27:50.724Z,0.83
2022-10-24T17:30:19.335Z,0.75
2022-10-24T17:32:51.393Z,0.82
2022-10-24T17:35:20.695Z,1.37
2022-10-24T17:38:07.233Z,0.90
2022-10-24T17:40:41.249Z,0.90
2022-10-24T17:43:19.396Z,0.90
2022-10-24T17:45:47.310Z,0.80
2022-10-24T17:48:15.223Z,1.10
2022-10-24T17:50:44.961Z,0.80
2022-10-24T17:53:19.195Z,0.90
2022-10-24T17:55:49.978Z,0.73
2022-10-24T17:58:17.777Z,1.00
2022-10-24T18:00:45.633Z,1.10
2022-10-24T18:03:14.930Z,1.00
2022-10-24T18:05:42.737Z,1.20
2022-10-24T18:08:11.975Z,1.10
2022-10-24T18:10:39.986Z,1.10
2022-10-24T18:13:07.952Z,0.90
2022-10-24T18:15:38.351Z,1.13
2022-10-24T18:18:06.568Z,1.07
2022-10-24T18:20:37.461Z,0.73
2022-10-24T18:23:05.341Z,1.00
2022-10-24T18:25:33.208Z,1.30
2022-10-24T18:28:00.946Z,1.00
2022-10-24T18:30:29.717Z,1.13
2022-10-24T18:32:57.414Z,0.90
2022-10-24T18:35:27.597Z,0.90
2022-10-24T18:37:55.332Z,1.40
2022-10-24T18:40:23.246Z,1.15
2022-10-24T18:42:52.000Z,0.77
2022-10-24T18:45:26.397Z,1.00
2022-10-24T18:47:57.517Z,1.00
2022-10-24T18:50:25.754Z,1.30
2022-10-24T18:52:57.269Z,1.20
2022-10-24T18:55:28.570Z,1.17
2022-10-24T18:57:56.322Z,1.23
2022-10-24T19:00:24.872Z,1.27
2022-10-24T19:03:14.697Z,1.05
2022-10-24T19:05:51.843Z,1.17
2022-10-24T19:08:23.157Z,1.00
2022-10-24T19:10:52.586Z,0.85
2022-10-24T19:13:20.406Z,1.70
2022-10-24T19:15:49.191Z,1.33
2022-10-24T19:18:17.911Z,1.40
2022-10-24T19:20:47.679Z,1.20
2022-10-24T19:23:16.278Z,1.80
2022-10-24T19:25:45.676Z,1.88
2022-10-24T19:28:16.602Z,2.10
2022-10-24T19:30:45.200Z,1.65
2022-10-24T19:33:13.176Z,1.67
2022-10-24T19:35:45.448Z,1.58
2022-10-24T19:38:17.285Z,1.38
2022-10-24T19:40:48.517Z,1.43
2022-10-24T19:43:16.477Z,1.77
2022-10-24T19:46:00.506Z,1.60
2022-10-24T19:48:36.912Z,1.65
2022-10-24T19:51:05.463Z,2.03
2022-10-24T19:53:34.362Z,1.70
2022-10-24T19:56:08.973Z,1.85
2022-10-24T19:58:37.077Z,2.03
2022-10-24T20:01:05.662Z,1.95
2022-10-24T20:03:33.525Z,2.00
2022-10-24T20:06:01.346Z,1.60
2022-10-24T20:08:29.080Z,1.83
2022-10-24T20:10:56.830Z,2.15
2022-10-24T20:13:24.615Z,1.67
2022-10-24T20:15:58.987Z,1.52
2022-10-24T20:18:27.001Z,1.73
2022-10-24T20:20:54.977Z,1.85
2022-10-24T20:23:22.833Z,2.23
2022-10-24T20:25:50.912Z,1.73
2022-10-24T20:28:18.877Z,2.10
2022-10-24T20:30:46.847Z,1.50
2022-10-24T20:33:17.595Z,1.70
2022-10-24T20:35:45.406Z,1.83
2022-10-24T20:38:13.179Z,2.20
2022-10-24T20:40:40.841Z,1.85
2022-10-24T20:43:09.412Z,1.98
2022-10-24T20:45:40.624Z,2.33
2022-10-24T20:48:08.375Z,1.60
2022-10-24T20:50:36.218Z,1.30
2022-10-24T20:53:04.151Z,1.77
2022-10-24T20:55:43.464Z,1.50
2022-10-24T20:58:13.662Z,1.85
2022-10-24T21:00:44.404Z,1.35
2022-10-24T21:03:14.416Z,1.20
2022-10-24T21:05:42.133Z,1.90
2022-10-24T21:08:09.769Z,1.48
2022-10-24T21:10:37.477Z,1.45
2022-10-24T21:13:05.104Z,1.43
2022-10-24T21:15:33.456Z,1.33
2022-10-24T21:18:01.127Z,2.15
2022-10-24T21:20:28.960Z,1.57
2022-10-24T21:22:56.709Z,1.58
2022-10-24T21:25:24.480Z,1.85
2022-10-24T21:27:52.128Z,1.48
2022-10-24T21:30:19.871Z,1.30
2022-10-24T21:32:47.574Z,2.05
2022-10-24T21:35:15.377Z,1.42
2022-10-24T21:37:43.174Z,1.67
2022-10-24T21:40:11.339Z,1.23
2022-10-24T21:42:39.113Z,1.70
2022-10-24T21:45:06.912Z,1.57
2022-10-24T21:47:34.655Z,1.50
2022-10-24T21:50:02.301Z,1.38
2022-10-24T21:52:30.028Z,1.23
2022-10-24T21:54:57.669Z,2.10
2022-10-24T21:57:25.382Z,1.60
2022-10-24T21:59:53.038Z,1.80
2022-10-24T22:02:21.043Z,1.53
2022-10-24T22:04:48.760Z,2.25
2022-10-24T22:07:16.644Z,1.60
2022-10-24T22:09:44.373Z,1.70
2022-10-24T22:12:12.096Z,1.58
2022-10-24T22:14:39.795Z,1.63
2022-10-24T22:17:08.075Z,1.35
2022-10-24T22:19:35.823Z,1.80
2022-10-24T22:22:03.572Z,1.75
2022-10-24T22:24:31.311Z,1.30
2022-10-24T22:26:58.991Z,1.37
2022-10-24T22:29:26.725Z,1.98
2022-10-24T22:31:57.475Z,1.60
2022-10-24T22:34:26.054Z,1.87
2022-10-24T22:36:53.731Z,1.95
2022-10-24T22:39:22.362Z,1.40
2022-10-24T22:41:50.210Z,1.50
2022-10-24T22:44:18.608Z,1.50
2022-10-24T22:46:51.541Z,1.83
2022-10-24T22:49:38.126Z,2.13
2022-10-24T22:52:06.075Z,2.07
2022-10-24T22:54:35.559Z,1.52
2022-10-24T22:57:03.788Z,1.90
2022-10-24T22:59:31.900Z,2.00
2022-10-24T23:02:04.221Z,1.60
2022-10-24T23:04:32.150Z,1.23
2022-10-24T23:07:03.521Z,1.73
2022-10-24T23:09:31.267Z,2.53
2022-10-24T23:11:58.981Z,1.88
2022-10-24T23:14:26.847Z,1.83
2022-10-24T23:16:58.122Z,1.77
2022-10-24T23:19:29.382Z,1.80
2022-10-24T23:21:58.367Z,3.13
2022-10-24T23:24:26.292Z,1.97
2022-10-24T23:26:53.927Z,2.13
2022-10-24T23:29:31.928Z,1.70
2022-10-24T23:31:59.840Z,2.07
2022-10-24T23:34:27.823Z,3.00
2022-10-24T23:36:56.321Z,2.30
2022-10-24T23:39:25.217Z,2.42
2022-10-24T23:41:53.196Z,2.00
2022-10-24T23:44:20.989Z,2.50
2022-10-24T23:46:49.387Z,2.38
2022-10-24T23:49:28.044Z,2.10
2022-10-24T23:52:11.102Z,2.65
2022-10-24T23:54:38.880Z,2.13
2022-10-24T23:57:14.868Z,2.50
2022-10-24T23:59:42.634Z,2.22
